createdAt,value
2023-02-25T00:00:19.503Z,101099.78
2023-02-25T00:03:05.015Z,101106.72
2023-02-25T00:05:50.216Z,101117.94
2023-02-25T00:08:36.332Z,101121.47
2023-02-25T00:11:23.099Z,101110.53
2023-02-25T00:14:09.724Z,101106.41
2023-02-25T00:16:57.618Z,101121.56
2023-02-25T00:19:42.856Z,101103.66
2023-02-25T00:22:28.383Z,101121.13
2023-02-25T00:25:16.746Z,101121.66
2023-02-25T00:28:06.177Z,101124.44
2023-02-25T00:30:51.357Z,101107.53
2023-02-25T00:33:37.429Z,101125.00
2023-02-25T00:36:25.524Z,101121.56
2023-02-25T00:39:11.450Z,101135.50
2023-02-25T00:41:56.388Z,101131.09
2023-02-25T00:44:47.259Z,101139.59
2023-02-25T00:47:32.251Z,101143.13
2023-02-25T00:50:17.423Z,101139.94
2023-02-25T00:53:02.606Z,101143.47
2023-02-25T00:55:47.608Z,101107.25
2023-02-25T00:58:35.682Z,101135.94
2023-02-25T01:01:27.805Z,101119.06
2023-02-25T01:04:13.585Z,101138.59
2023-02-25T01:06:58.568Z,101141.31
2023-02-25T01:09:44.717Z,101142.47
2023-02-25T01:12:30.303Z,101114.44
2023-02-25T01:15:15.559Z,101102.69
2023-02-25T01:18:00.859Z,101139.31
2023-02-25T01:20:46.628Z,101136.78
2023-02-25T01:23:31.885Z,101134.97
2023-02-25T01:26:17.077Z,101120.53
2023-02-25T01:29:02.041Z,101130.91
2023-02-25T01:31:47.626Z,101112.81
2023-02-25T01:34:33.458Z,101124.25
2023-02-25T01:37:18.589Z,101115.63
2023-02-25T01:40:04.948Z,101133.50
2023-02-25T01:42:49.985Z,101126.66
2023-02-25T01:45:42.409Z,101137.75
2023-02-25T01:48:31.282Z,101130.97
2023-02-25T01:51:16.329Z,101131.88
2023-02-25T01:54:03.770Z,101142.25
2023-02-25T01:56:53.652Z,101133.84
2023-02-25T01:59:40.655Z,101137.38
2023-02-25T02:02:28.676Z,101139.06
2023-02-25T02:05:15.224Z,101144.28
2023-02-25T02:08:00.404Z,101113.84
2023-02-25T02:10:45.470Z,101143.53
2023-02-25T02:13:34.247Z,101122.34
2023-02-25T02:16:28.516Z,101144.63
2023-02-25T02:19:28.072Z,101142.09
2023-02-25T02:22:43.585Z,101143.66
2023-02-25T02:25:47.412Z,101143.88
2023-02-25T02:28:49.893Z,101142.94
2023-02-25T02:32:05.101Z,101139.44
2023-02-25T02:35:16.939Z,101152.25
2023-02-25T02:38:12.347Z,101145.09
2023-02-25T02:41:17.704Z,101144.19
2023-02-25T02:44:07.334Z,101119.63
2023-02-25T02:47:01.249Z,101137.16
2023-02-25T02:50:02.427Z,101133.75
2023-02-25T02:52:52.390Z,101136.44
2023-02-25T02:55:43.734Z,101129.28
2023-02-25T02:58:38.646Z,101137.06
2023-02-25T03:01:30.599Z,101141.63
2023-02-25T03:04:20.025Z,101143.09
2023-02-25T03:07:10.181Z,101108.91
2023-02-25T03:10:04.902Z,101131.78
2023-02-25T03:12:50.254Z,101132.72
2023-02-25T03:15:36.981Z,101140.56
2023-02-25T03:18:35.807Z,101141.34
2023-02-25T03:21:26.782Z,101149.28
2023-02-25T03:24:22.370Z,101154.50
2023-02-25T03:27:27.441Z,101156.97
2023-02-25T03:30:29.215Z,101139.91
2023-02-25T03:33:29.416Z,101133.25
2023-02-25T03:36:21.094Z,101137.56
2023-02-25T03:39:11.369Z,101142.66
2023-02-25T03:42:01.732Z,101120.63
2023-02-25T03:44:52.288Z,101147.84
2023-02-25T03:47:38.529Z,101146.97
2023-02-25T03:50:33.288Z,101123.38
2023-02-25T03:53:18.415Z,101131.16
2023-02-25T03:56:07.951Z,101149.72
2023-02-25T03:58:53.170Z,101128.44
2023-02-25T04:01:40.948Z,101151.63
2023-02-25T04:04:26.498Z,101149.06
2023-02-25T04:07:11.796Z,101144.91
2023-02-25T04:09:56.880Z,101133.16
2023-02-25T04:12:42.388Z,101132.34
2023-02-25T04:15:28.983Z,101159.63
2023-02-25T04:18:15.069Z,101168.31
2023-02-25T04:21:00.908Z,101181.38
2023-02-25T04:23:45.804Z,101182.31
2023-02-25T04:26:31.122Z,101181.47
2023-02-25T04:29:16.018Z,101179.03
2023-02-25T04:32:01.282Z,101194.47
2023-02-25T04:34:46.202Z,101185.84
2023-02-25T04:37:31.606Z,101190.09
2023-02-25T04:40:19.199Z,101190.09
2023-02-25T04:43:04.415Z,101194.22
2023-02-25T04:45:49.698Z,101183.72
2023-02-25T04:48:34.580Z,101172.47
2023-02-25T04:51:21.127Z,101172.47
2023-02-25T04:54:06.119Z,101174.13
2023-02-25T04:56:51.156Z,101143.41
2023-02-25T04:59:36.160Z,101165.41
2023-02-25T05:02:21.120Z,101171.53
2023-02-25T05:05:06.841Z,101171.53
2023-02-25T05:07:52.351Z,101169.03
2023-02-25T05:10:37.198Z,101168.03
2023-02-25T05:13:22.742Z,101164.66
2023-02-25T05:16:10.869Z,101172.22
2023-02-25T05:18:56.260Z,101178.25
2023-02-25T05:21:41.429Z,101172.13
2023-02-25T05:24:26.314Z,101173.88
2023-02-25T05:27:11.729Z,101172.13
2023-02-25T05:29:57.295Z,101180.09
2023-02-25T05:32:42.905Z,101187.97
2023-02-25T05:35:27.896Z,101186.34
2023-02-25T05:38:13.195Z,101178.72
2023-02-25T05:41:01.830Z,101187.06
2023-02-25T05:43:47.025Z,101193.91
2023-02-25T05:46:32.402Z,101180.19
2023-02-25T05:49:17.398Z,101184.41
2023-02-25T05:52:02.492Z,101198.06
2023-02-25T05:54:48.435Z,101192.00
2023-02-25T05:57:33.456Z,101200.53
2023-02-25T06:00:21.552Z,101182.84
2023-02-25T06:03:06.963Z,101191.34
2023-02-25T06:05:53.412Z,101172.38
2023-02-25T06:08:39.058Z,101188.31
2023-02-25T06:11:27.487Z,101191.66
2023-02-25T06:14:12.281Z,101174.81
2023-02-25T06:16:57.401Z,101190.97
2023-02-25T06:19:42.494Z,101193.44
2023-02-25T06:22:27.922Z,101200.28
2023-02-25T06:25:12.859Z,101185.06
2023-02-25T06:28:01.673Z,101181.78
2023-02-25T06:30:47.040Z,101205.56
2023-02-25T06:33:32.351Z,101220.16
2023-02-25T06:36:20.611Z,101221.84
2023-02-25T06:39:05.800Z,101225.34
2023-02-25T06:41:51.251Z,101229.63
2023-02-25T06:44:36.393Z,101228.56
2023-02-25T06:47:22.837Z,101231.25
2023-02-25T06:50:08.646Z,101231.28
2023-02-25T06:52:53.528Z,101226.19
2023-02-25T06:55:40.105Z,101243.16
2023-02-25T06:58:25.485Z,101237.19
2023-02-25T07:01:14.319Z,101236.50
2023-02-25T07:03:59.320Z,101249.41
2023-02-25T07:06:45.071Z,101240.75
2023-02-25T07:09:30.132Z,101255.44
2023-02-25T07:12:15.475Z,101247.81
2023-02-25T07:15:00.681Z,101231.69
2023-02-25T07:17:45.926Z,101253.03
2023-02-25T07:20:31.220Z,101256.44
2023-02-25T07:23:16.444Z,101257.06
2023-02-25T07:26:06.274Z,101258.94
2023-02-25T07:28:51.225Z,101245.47
2023-02-25T07:31:36.527Z,101273.47
2023-02-25T07:34:21.561Z,101271.50
2023-02-25T07:37:06.572Z,101253.84
2023-02-25T07:39:51.745Z,101275.03
2023-02-25T07:42:36.802Z,101273.28
2023-02-25T07:45:22.887Z,101278.38
2023-02-25T07:48:08.313Z,101281.78
2023-02-25T07:50:54.461Z,101281.69
2023-02-25T07:53:39.942Z,101291.03
2023-02-25T07:56:27.668Z,101300.53
2023-02-25T07:59:13.302Z,101303.81
2023-02-25T08:01:58.342Z,101303.72
2023-02-25T08:04:43.520Z,101309.00
2023-02-25T08:07:30.196Z,101299.34
2023-02-25T08:10:15.308Z,101296.66
2023-02-25T08:13:00.550Z,101296.41
2023-02-25T08:15:46.546Z,101303.28
2023-02-25T08:18:31.568Z,101276.75
2023-02-25T08:21:21.742Z,101309.91
2023-02-25T08:24:08.034Z,101308.84
2023-02-25T08:26:54.721Z,101304.47
2023-02-25T08:29:39.675Z,101308.94
2023-02-25T08:32:27.479Z,101301.81
2023-02-25T08:35:13.339Z,101276.63
2023-02-25T08:37:58.385Z,101296.03
2023-02-25T08:40:44.766Z,101312.13
2023-02-25T08:43:30.263Z,101302.69
2023-02-25T08:46:15.521Z,101318.06
2023-02-25T08:49:01.370Z,101292.41
2023-02-25T08:51:46.338Z,101315.41
2023-02-25T08:54:32.616Z,101311.97
2023-02-25T08:57:17.723Z,101293.72
2023-02-25T09:00:06.255Z,101311.84
2023-02-25T09:02:51.931Z,101305.75
2023-02-25T09:05:38.071Z,101307.34
2023-02-25T09:08:23.030Z,101303.00
2023-02-25T09:11:08.567Z,101299.31
2023-02-25T09:13:54.294Z,101307.81
2023-02-25T09:16:39.558Z,101316.44
2023-02-25T09:19:24.590Z,101316.28
2023-02-25T09:22:10.380Z,101324.50
2023-02-25T09:24:56.045Z,101313.16
2023-02-25T09:27:40.903Z,101306.03
2023-02-25T09:30:26.581Z,101314.41
2023-02-25T09:33:11.762Z,101300.59
2023-02-25T09:36:21.889Z,101313.03
2023-02-25T09:39:10.384Z,101314.31
2023-02-25T09:42:09.638Z,101309.38
2023-02-25T09:45:02.452Z,101314.69
2023-02-25T09:47:58.042Z,101312.91
2023-02-25T09:50:51.995Z,101289.72
2023-02-25T09:53:44.451Z,101313.13
2023-02-25T09:56:30.676Z,101300.19
2023-02-25T09:59:22.118Z,101291.34
2023-02-25T10:02:22.684Z,101309.13
2023-02-25T10:05:26.482Z,101314.06
2023-02-25T10:08:22.204Z,101308.00
2023-02-25T10:11:12.723Z,101302.47
2023-02-25T10:14:04.230Z,101321.28
2023-02-25T10:16:55.755Z,101325.91
2023-02-25T10:19:53.889Z,101324.81
2023-02-25T10:22:48.734Z,101336.47
2023-02-25T10:25:39.969Z,101330.63
2023-02-25T10:28:25.121Z,101332.69
2023-02-25T10:31:18.658Z,101335.69
2023-02-25T10:34:28.408Z,101331.72
2023-02-25T10:37:20.338Z,101341.88
2023-02-25T10:40:11.045Z,101345.00
2023-02-25T10:43:00.800Z,101328.25
2023-02-25T10:45:49.685Z,101357.75
2023-02-25T10:48:36.114Z,101348.16
2023-02-25T10:51:21.253Z,101351.09
2023-02-25T10:54:08.375Z,101350.63
2023-02-25T10:56:55.200Z,101331.22
2023-02-25T10:59:42.820Z,101340.81
2023-02-25T11:02:31.471Z,101370.63
2023-02-25T11:05:40.704Z,101359.03
2023-02-25T11:08:32.880Z,101359.19
2023-02-25T11:11:31.855Z,101360.06
2023-02-25T11:14:18.819Z,101359.63
2023-02-25T11:17:07.289Z,101354.06
2023-02-25T11:20:00.079Z,101347.47
2023-02-25T11:22:46.623Z,101349.16
2023-02-25T11:25:43.593Z,101345.81
2023-02-25T11:28:39.486Z,101346.75
2023-02-25T11:31:33.253Z,101352.25
2023-02-25T11:34:30.932Z,101346.25
2023-02-25T11:37:31.385Z,101347.31
2023-02-25T11:40:28.021Z,101342.50
2023-02-25T11:43:19.924Z,101333.97
2023-02-25T11:46:19.613Z,101344.59
2023-02-25T11:49:25.198Z,101301.66
2023-02-25T11:52:19.067Z,101326.94
2023-02-25T11:55:19.404Z,101327.06
2023-02-25T11:58:23.311Z,101330.94
2023-02-25T12:01:21.453Z,101330.34
2023-02-25T12:04:09.528Z,101322.63
2023-02-25T12:07:03.654Z,101303.19
2023-02-25T12:10:09.070Z,101323.91
2023-02-25T12:13:15.712Z,101313.28
2023-02-25T12:16:31.739Z,101316.78
2023-02-25T12:19:48.069Z,101316.28
2023-02-25T12:22:52.180Z,101310.72
2023-02-25T12:25:57.904Z,101325.63
2023-02-25T12:29:03.497Z,101325.97
2023-02-25T12:32:16.097Z,101324.81
2023-02-25T12:35:27.436Z,101317.78
2023-02-25T12:38:49.588Z,101322.88
2023-02-25T12:42:10.383Z,101325.25
2023-02-25T12:45:01.383Z,101340.75
2023-02-25T12:48:06.406Z,101342.19
2023-02-25T12:51:14.764Z,101352.53
2023-02-25T12:54:34.673Z,101359.97
2023-02-25T12:57:39.120Z,101355.59
2023-02-25T13:00:33.337Z,101350.44
2023-02-25T13:03:54.526Z,101345.25
2023-02-25T13:06:45.729Z,101343.94
2023-02-25T13:09:36.649Z,101340.81
2023-02-25T13:12:24.534Z,101305.50
2023-02-25T13:15:20.488Z,101331.03
2023-02-25T13:18:11.770Z,101322.16
2023-02-25T13:21:22.585Z,101332.22
2023-02-25T13:24:35.521Z,101323.97
2023-02-25T13:27:53.618Z,101315.25
2023-02-25T13:30:47.202Z,101327.63
2023-02-25T13:33:41.330Z,101306.31
2023-02-25T13:36:51.247Z,101328.16
2023-02-25T13:40:21.254Z,101325.94
2023-02-25T13:43:25.620Z,101307.44
2023-02-25T13:46:42.144Z,101301.13
2023-02-25T13:49:48.991Z,101306.34
2023-02-25T13:52:57.494Z,101308.63
2023-02-25T13:55:54.598Z,101305.50
2023-02-25T13:58:55.850Z,101288.97
2023-02-25T14:01:59.735Z,101286.00
2023-02-25T14:04:49.311Z,101291.13
2023-02-25T14:07:51.560Z,101297.22
2023-02-25T14:10:43.489Z,101296.34
2023-02-25T14:13:47.152Z,101295.25
2023-02-25T14:17:08.580Z,101294.94
2023-02-25T14:20:23.120Z,101298.75
2023-02-25T14:23:14.015Z,101298.84
2023-02-25T14:26:11.180Z,101298.75
2023-02-25T14:29:20.791Z,101303.56
2023-02-25T14:32:08.971Z,101311.44
2023-02-25T14:35:32.028Z,101311.06
2023-02-25T14:38:28.071Z,101305.78
2023-02-25T14:41:34.491Z,101321.72
2023-02-25T14:44:39.843Z,101331.38
2023-02-25T14:48:12.319Z,101352.38
2023-02-25T14:51:19.223Z,101351.97
2023-02-25T14:54:42.154Z,101360.72
2023-02-25T14:57:45.898Z,101355.50
2023-02-25T15:00:49.619Z,101344.94
2023-02-25T15:04:22.937Z,101351.00
2023-02-25T15:07:21.037Z,101358.44
2023-02-25T15:10:25.288Z,101355.97
2023-02-25T15:13:19.804Z,101353.28
2023-02-25T15:16:23.136Z,101351.16
2023-02-25T15:19:27.598Z,101350.63
2023-02-25T15:22:25.965Z,101362.38
2023-02-25T15:25:20.400Z,101356.22
2023-02-25T15:28:31.564Z,101369.47
2023-02-25T15:31:32.984Z,101374.22
2023-02-25T15:34:21.397Z,101382.16
2023-02-25T15:37:28.415Z,101377.81
2023-02-25T15:40:16.468Z,101375.97
2023-02-25T15:43:26.402Z,101382.22
2023-02-25T15:46:11.609Z,101386.03
2023-02-25T15:49:15.711Z,101389.00
2023-02-25T15:52:04.479Z,101384.72
2023-02-25T15:54:50.864Z,101387.31
2023-02-25T15:57:37.346Z,101390.19
2023-02-25T16:00:51.134Z,101386.94
2023-02-25T16:03:36.715Z,101387.69
2023-02-25T16:06:39.062Z,101387.59
2023-02-25T16:09:26.258Z,101385.81
2023-02-25T16:12:14.373Z,101402.16
2023-02-25T16:14:59.912Z,101409.84
2023-02-25T16:17:45.402Z,101405.53
2023-02-25T16:20:40.353Z,101406.38
2023-02-25T16:23:25.873Z,101415.00
2023-02-25T16:26:34.184Z,101431.31
2023-02-25T16:30:05.752Z,101432.63
2023-02-25T16:32:59.352Z,101448.63
2023-02-25T16:35:55.425Z,101441.16
2023-02-25T16:39:07.287Z,101450.59
2023-02-25T16:41:53.352Z,101451.00
2023-02-25T16:44:39.791Z,101456.09
2023-02-25T16:47:27.620Z,101458.72
2023-02-25T16:50:15.939Z,101459.69
2023-02-25T16:53:03.406Z,101467.63
2023-02-25T16:55:49.818Z,101459.16
2023-02-25T16:58:35.127Z,101460.94
2023-02-25T17:01:23.959Z,101462.72
2023-02-25T17:04:19.866Z,101470.59
2023-02-25T17:07:28.085Z,101457.13
2023-02-25T17:10:24.533Z,101474.13
2023-02-25T17:13:16.183Z,101461.16
2023-02-25T17:16:03.909Z,101478.53
2023-02-25T17:18:53.595Z,101477.69
2023-02-25T17:21:44.329Z,101490.03
2023-02-25T17:24:32.324Z,101489.28
2023-02-25T17:27:19.168Z,101490.47
2023-02-25T17:30:06.324Z,101499.56
2023-02-25T17:32:59.072Z,101502.59
2023-02-25T17:35:47.939Z,101490.78
2023-02-25T17:38:33.514Z,101498.59
2023-02-25T17:41:21.194Z,101498.75
2023-02-25T17:44:10.405Z,101510.09
2023-02-25T17:46:55.487Z,101494.34
2023-02-25T17:49:40.844Z,101491.94
2023-02-25T17:52:32.385Z,101507.28
2023-02-25T17:55:27.891Z,101498.00
2023-02-25T17:58:22.968Z,101496.56
2023-02-25T18:01:10.184Z,101517.03
2023-02-25T18:03:55.598Z,101522.25
2023-02-25T18:06:44.739Z,101521.28
2023-02-25T18:09:49.649Z,101535.34
2023-02-25T18:12:38.414Z,101536.22
2023-02-25T18:15:30.992Z,101527.94
2023-02-25T18:18:22.648Z,101543.03
2023-02-25T18:21:10.021Z,101541.22
2023-02-25T18:23:55.277Z,101524.34
2023-02-25T18:27:00.701Z,101544.81
2023-02-25T18:29:46.005Z,101556.72
2023-02-25T18:32:30.904Z,101562.78
2023-02-25T18:35:17.277Z,101562.88
2023-02-25T18:38:02.869Z,101567.84
2023-02-25T18:40:49.102Z,101567.69
2023-02-25T18:43:38.934Z,101569.59
2023-02-25T18:46:24.410Z,101561.47
2023-02-25T18:49:09.751Z,101569.59
2023-02-25T18:51:54.957Z,101568.69
2023-02-25T18:54:41.539Z,101585.13
2023-02-25T18:57:27.349Z,101574.09
2023-02-25T19:00:13.946Z,101569.88
2023-02-25T19:03:04.593Z,101577.84
2023-02-25T19:05:49.994Z,101569.47
2023-02-25T19:08:35.143Z,101577.25
2023-02-25T19:11:25.940Z,101564.72
2023-02-25T19:14:17.537Z,101578.34
2023-02-25T19:17:03.470Z,101589.63
2023-02-25T19:19:53.265Z,101598.50
2023-02-25T19:22:42.960Z,101588.09
2023-02-25T19:25:30.134Z,101595.03
2023-02-25T19:28:15.177Z,101603.75
2023-02-25T19:31:00.437Z,101594.56
2023-02-25T19:33:45.890Z,101609.88
2023-02-25T19:36:31.170Z,101603.25
2023-02-25T19:39:17.080Z,101611.84
2023-02-25T19:42:02.041Z,101606.69
2023-02-25T19:44:47.208Z,101623.19
2023-02-25T19:47:32.035Z,101624.13
2023-02-25T19:50:19.052Z,101624.31
2023-02-25T19:53:05.485Z,101628.66
2023-02-25T19:55:55.627Z,101632.22
2023-02-25T19:58:40.485Z,101646.13
2023-02-25T20:01:27.680Z,101639.16
2023-02-25T20:04:12.784Z,101642.66
2023-02-25T20:06:58.832Z,101636.69
2023-02-25T20:09:43.788Z,101644.75
2023-02-25T20:12:28.817Z,101643.09
2023-02-25T20:15:15.171Z,101643.28
2023-02-25T20:18:00.439Z,101651.81
2023-02-25T20:20:45.499Z,101657.91
2023-02-25T20:23:30.741Z,101647.00
2023-02-25T20:26:18.604Z,101665.72
2023-02-25T20:29:04.107Z,101671.78
2023-02-25T20:31:49.844Z,101668.38
2023-02-25T20:34:34.996Z,101682.19
2023-02-25T20:37:24.647Z,101661.81
2023-02-25T20:40:11.963Z,101683.97
2023-02-25T20:42:56.998Z,101683.09
2023-02-25T20:45:42.628Z,101689.22
2023-02-25T20:48:30.504Z,101687.56
2023-02-25T20:51:15.801Z,101688.63
2023-02-25T20:54:01.158Z,101696.41
2023-02-25T20:56:47.888Z,101699.97
2023-02-25T20:59:34.974Z,101709.56
2023-02-25T21:02:20.765Z,101706.09
2023-02-25T21:05:05.958Z,101718.34
2023-02-25T21:07:51.821Z,101712.38
2023-02-25T21:10:37.235Z,101729.69
2023-02-25T21:13:22.447Z,101724.56
2023-02-25T21:16:08.048Z,101731.44
2023-02-25T21:18:53.258Z,101735.75
2023-02-25T21:21:38.622Z,101728.94
2023-02-25T21:24:23.956Z,101725.69
2023-02-25T21:27:09.220Z,101735.28
2023-02-25T21:29:55.338Z,101744.75
2023-02-25T21:32:40.189Z,101749.91
2023-02-25T21:35:25.784Z,101744.91
2023-02-25T21:38:11.178Z,101732.06
2023-02-25T21:40:57.171Z,101750.91
2023-02-25T21:43:43.650Z,101755.34
2023-02-25T21:46:28.985Z,101738.31
2023-02-25T21:49:14.334Z,101760.53
2023-02-25T21:51:59.524Z,101767.47
2023-02-25T21:54:44.726Z,101775.34
2023-02-25T21:57:29.898Z,101777.09
2023-02-25T22:00:15.537Z,101775.50
2023-02-25T22:03:00.710Z,101774.69
2023-02-25T22:05:47.121Z,101754.16
2023-02-25T22:08:32.284Z,101772.91
2023-02-25T22:11:23.019Z,101779.75
2023-02-25T22:14:09.641Z,101783.31
2023-02-25T22:16:54.950Z,101779.94
2023-02-25T22:19:40.083Z,101785.09
2023-02-25T22:22:25.081Z,101778.38
2023-02-25T22:25:10.345Z,101783.44
2023-02-25T22:27:55.369Z,101781.75
2023-02-25T22:30:40.450Z,101781.91
2023-02-25T22:33:25.474Z,101760.63
2023-02-25T22:36:12.178Z,101780.28
2023-02-25T22:38:57.205Z,101784.63
2023-02-25T22:41:42.311Z,101794.16
2023-02-25T22:44:27.359Z,101782.28
2023-02-25T22:47:12.710Z,101792.53
2023-02-25T22:49:57.797Z,101792.56
2023-02-25T22:52:44.836Z,101796.06
2023-02-25T22:55:33.176Z,101796.03
2023-02-25T22:58:18.197Z,101785.78
2023-02-25T23:01:03.501Z,101766.19
2023-02-25T23:03:49.577Z,101787.44
2023-02-25T23:06:43.389Z,101786.69
2023-02-25T23:09:29.284Z,101797.06
2023-02-25T23:12:14.395Z,101798.91
2023-02-25T23:15:00.129Z,101801.50
2023-02-25T23:17:46.183Z,101810.25
2023-02-25T23:20:33.216Z,101792.28
2023-02-25T23:23:18.226Z,101818.88
2023-02-25T23:26:03.492Z,101814.53
2023-02-25T23:28:49.161Z,101821.47
2023-02-25T23:31:36.991Z,101820.66
2023-02-25T23:34:23.850Z,101811.38
2023-02-25T23:37:08.973Z,101829.41
2023-02-25T23:39:54.226Z,101800.53
2023-02-25T23:42:40.052Z,101828.78
2023-02-25T23:45:25.032Z,101817.75
2023-02-25T23:48:10.235Z,101839.13
2023-02-25T23:50:55.125Z,101829.63
2023-02-25T23:53:40.394Z,101839.91
2023-02-25T23:56:29.609Z,101840.81
2023-02-25T23:59:15.185Z,101849.41
